Time;durP1;ratioP1;P1;durP2;ratioP2;P2;SDS_P1;SDS_P2;PMS_P1;PMS_P2;Temp;Humidity;BMP_temperature;BMP_pressure;BME280_temperature;BME280_humidity;BME280_pressure;Samples;Min_cycle;Max_cycle;Signal;HPM_P1;HPM_P2
2022/03/20 00:00:06;;;;;;;8.38;4.88;;;;;;;;;;5061248;28;20040;-86
2022/03/20 00:02:33;;;;;;;8.27;4.55;;;;;;;;;;5060592;28;20472;-84
2022/03/20 00:05:02;;;;;;;9.15;4.82;;;;;;;;;;5056959;28;20032;-85
2022/03/20 00:07:33;;;;;;;9.32;4.93;;;;;;;;;;5052640;28;20483;-84
2022/03/20 00:10:03;;;;;;;7.13;5.00;;;;;;;;;;5052370;28;20385;-86
2022/03/20 00:12:29;;;;;;;8.60;5.25;;;;;;;;;;5062425;28;20400;-87
2022/03/20 00:14:54;;;;;;;7.35;3.92;;;;;;;;;;5057859;28;20036;-85
2022/03/20 00:17:22;;;;;;;5.20;3.58;;;;;;;;;;5068231;28;20043;-84
2022/03/20 00:19:48;;;;;;;6.45;3.45;;;;;;;;;;5060458;28;20395;-85
2022/03/20 00:22:15;;;;;;;10.75;5.35;;;;;;;;;;5058479;28;20050;-84
2022/03/20 00:24:41;;;;;;;16.52;6.97;;;;;;;;;;5060797;28;20032;-85
2022/03/20 00:27:12;;;;;;;8.35;5.28;;;;;;;;;;5050118;28;20058;-85
2022/03/20 00:29:38;;;;;;;11.18;5.38;;;;;;;;;;5059587;28;20031;-85
2022/03/20 00:32:05;;;;;;;7.65;4.15;;;;;;;;;;5058938;28;20060;-87
2022/03/20 00:34:30;;;;;;;5.00;3.42;;;;;;;;;;5053568;28;20035;-86
2022/03/20 00:36:56;;;;;;;3.97;2.95;;;;;;;;;;5058852;28;20116;-85
2022/03/20 00:39:21;;;;;;;4.82;3.05;;;;;;;;;;5057216;28;20487;-83
2022/03/20 00:41:47;;;;;;;4.40;2.83;;;;;;;;;;5070173;28;20021;-83
2022/03/20 00:44:13;;;;;;;6.28;3.28;;;;;;;;;;5071228;28;20033;-84
2022/03/20 00:46:38;;;;;;;4.72;2.90;;;;;;;;;;5070283;28;20028;-85
2022/03/20 00:49:05;;;;;;;3.35;1.80;;;;;;;;;;5058981;28;20056;-86
2022/03/20 00:51:31;;;;;;;2.85;2.30;;;;;;;;;;5071442;28;20028;-84
2022/03/20 00:53:57;;;;;;;6.57;3.50;;;;;;;;;;5054842;28;20032;-83
2022/03/20 00:56:22;;;;;;;4.57;2.70;;;;;;;;;;5065064;28;20021;-81
2022/03/20 00:58:48;;;;;;;4.60;3.05;;;;;;;;;;5068464;28;20480;-84
2022/03/20 01:01:14;;;;;;;5.45;3.30;;;;;;;;;;5055525;28;20021;-83
2022/03/20 01:03:41;;;;;;;5.32;3.40;;;;;;;;;;5061879;28;20032;-83
2022/03/20 01:06:07;;;;;;;6.80;3.28;;;;;;;;;;5057051;28;20041;-85
2022/03/20 01:08:39;;;;;;;6.85;3.75;;;;;;;;;;5058396;28;20024;-83
2022/03/20 01:11:07;;;;;;;4.13;3.30;;;;;;;;;;5057001;28;20029;-83
2022/03/20 01:13:33;;;;;;;4.40;2.95;;;;;;;;;;5061912;28;20167;-86
2022/03/20 01:15:59;;;;;;;5.45;2.42;;;;;;;;;;5060529;28;20099;-84
2022/03/20 01:18:25;;;;;;;3.28;2.50;;;;;;;;;;5068073;28;20422;-84
2022/03/20 01:20:51;;;;;;;3.95;2.45;;;;;;;;;;5064780;28;20028;-84
2022/03/20 01:23:17;;;;;;;5.55;4.25;;;;;;;;;;5069612;28;20460;-81
2022/03/20 01:25:42;;;;;;;7.40;3.67;;;;;;;;;;5062186;28;20031;-87
2022/03/20 01:28:08;;;;;;;7.05;4.22;;;;;;;;;;5058863;28;20057;-81
2022/03/20 01:30:34;;;;;;;9.73;6.13;;;;;;;;;;5058310;28;20040;-84
2022/03/20 01:32:59;;;;;;;8.32;4.95;;;;;;;;;;5061014;28;20354;-86
2022/03/20 01:35:25;;;;;;;9.13;5.57;;;;;;;;;;5067054;28;20028;-87
2022/03/20 01:37:50;;;;;;;5.15;4.00;;;;;;;;;;5059476;28;20104;-85
2022/03/20 01:40:16;;;;;;;7.28;4.45;;;;;;;;;;5060127;28;20388;-83
2022/03/20 01:42:43;;;;;;;9.02;4.40;;;;;;;;;;5061539;28;20027;-85
2022/03/20 01:45:16;;;;;;;9.52;4.78;;;;;;;;;;5061526;28;20055;-87
2022/03/20 01:47:42;;;;;;;6.22;3.58;;;;;;;;;;5063914;28;20036;-84
2022/03/20 01:50:08;;;;;;;5.38;4.05;;;;;;;;;;5064360;28;20024;-88
2022/03/20 01:52:33;;;;;;;7.60;5.07;;;;;;;;;;5056020;28;20067;-87
2022/03/20 01:54:59;;;;;;;8.68;4.82;;;;;;;;;;5064868;28;20040;-87
2022/03/20 01:57:26;;;;;;;5.95;3.40;;;;;;;;;;5067880;28;20537;-84
2022/03/20 01:59:52;;;;;;;4.72;3.47;;;;;;;;;;5066433;28;20125;-84
2022/03/20 02:02:19;;;;;;;7.75;4.45;;;;;;;;;;5059376;28;20020;-86
2022/03/20 02:04:45;;;;;;;4.85;2.45;;;;;;;;;;5069628;28;20040;-87
2022/03/20 02:07:10;;;;;;;4.80;2.83;;;;;;;;;;5058353;28;20492;-86
2022/03/20 02:09:37;;;;;;;3.55;2.00;;;;;;;;;;5069101;28;20075;-87
2022/03/20 02:12:03;;;;;;;5.60;2.92;;;;;;;;;;5060872;28;20041;-85
2022/03/20 02:14:30;;;;;;;2.70;1.88;;;;;;;;;;5066550;28;20029;-85
2022/03/20 02:16:56;;;;;;;2.28;1.50;;;;;;;;;;5062757;28;20034;-87
2022/03/20 02:19:22;;;;;;;3.75;2.30;;;;;;;;;;5072948;28;20020;-86
2022/03/20 02:21:49;;;;;;;4.00;2.53;;;;;;;;;;5054163;28;20109;-85
2022/03/20 02:24:41;;;;;;;2.85;1.95;;;;;;;;;;5060022;28;20036;-89
2022/03/20 02:27:09;;;;;;;3.55;2.13;;;;;;;;;;5065166;28;20016;-87
2022/03/20 02:29:36;;;;;;;4.50;2.33;;;;;;;;;;5060062;28;20039;-86
2022/03/20 02:32:04;;;;;;;3.22;2.38;;;;;;;;;;5058925;28;20037;-86
2022/03/20 02:34:31;;;;;;;3.65;2.30;;;;;;;;;;5061060;28;20358;-84
2022/03/20 02:36:57;;;;;;;2.88;2.35;;;;;;;;;;5063440;28;20059;-85
2022/03/20 02:39:23;;;;;;;3.95;2.42;;;;;;;;;;5065465;28;20029;-84
2022/03/20 02:41:50;;;;;;;3.55;2.22;;;;;;;;;;5063896;28;20104;-84
2022/03/20 02:44:16;;;;;;;5.05;2.58;;;;;;;;;;5062230;28;20082;-83
2022/03/20 02:46:42;;;;;;;3.20;2.42;;;;;;;;;;5060241;28;20037;-86
2022/03/20 02:49:09;;;;;;;3.95;2.15;;;;;;;;;;5056000;28;20040;-88
2022/03/20 02:51:36;;;;;;;4.30;2.85;;;;;;;;;;5062251;28;20491;-85
2022/03/20 02:54:03;;;;;;;3.40;2.05;;;;;;;;;;5068813;28;20028;-87
2022/03/20 02:56:29;;;;;;;3.22;2.10;;;;;;;;;;5054085;28;20162;-85
2022/03/20 02:58:55;;;;;;;4.85;3.20;;;;;;;;;;5064025;28;20037;-83
2022/03/20 03:01:21;;;;;;;4.88;2.90;;;;;;;;;;5062060;28;20021;-84
2022/03/20 03:03:46;;;;;;;4.18;2.70;;;;;;;;;;5061272;28;20024;-87
2022/03/20 03:06:13;;;;;;;3.40;2.08;;;;;;;;;;5055914;28;20571;-88
2022/03/20 03:11:22;;;;;;;4.80;1.98;;;;;;;;;;5072223;28;20141;-84
2022/03/20 03:13:48;;;;;;;3.13;2.00;;;;;;;;;;5058567;28;20488;-86
2022/03/20 03:16:15;;;;;;;2.58;2.03;;;;;;;;;;5052500;28;20389;-86
2022/03/20 03:18:46;;;;;;;2.40;1.80;;;;;;;;;;5064530;28;20113;-84
2022/03/20 03:21:16;;;;;;;3.47;2.28;;;;;;;;;;5053774;28;20025;-83
2022/03/20 03:23:42;;;;;;;3.83;1.92;;;;;;;;;;5052045;28;21570;-84
2022/03/20 03:26:08;;;;;;;3.65;2.22;;;;;;;;;;5051932;28;20021;-87
2022/03/20 03:28:34;;;;;;;4.30;2.58;;;;;;;;;;5064876;28;20039;-82
2022/03/20 03:31:08;;;;;;;3.05;2.25;;;;;;;;;;5053533;28;20094;-83
2022/03/20 03:33:35;;;;;;;3.58;2.22;;;;;;;;;;5066511;28;20067;-84
2022/03/20 03:36:01;;;;;;;2.92;2.05;;;;;;;;;;5056415;28;20037;-84
2022/03/20 03:38:34;;;;;;;3.10;1.80;;;;;;;;;;5063733;28;20028;-83
2022/03/20 03:41:00;;;;;;;4.78;2.50;;;;;;;;;;5065024;28;20029;-84
2022/03/20 03:43:26;;;;;;;3.33;2.30;;;;;;;;;;5072056;28;20020;-84
2022/03/20 03:45:56;;;;;;;2.85;2.47;;;;;;;;;;5071630;28;20139;-85
2022/03/20 03:48:22;;;;;;;6.18;1.80;;;;;;;;;;5062480;28;20028;-85
2022/03/20 03:50:50;;;;;;;3.30;2.10;;;;;;;;;;5062651;28;20036;-84
2022/03/20 03:53:16;;;;;;;2.20;1.70;;;;;;;;;;5056654;28;20033;-84
2022/03/20 03:55:44;;;;;;;2.83;1.98;;;;;;;;;;5052685;28;20476;-84
2022/03/20 03:58:11;;;;;;;2.47;1.83;;;;;;;;;;5053303;28;20388;-86
2022/03/20 04:00:37;;;;;;;2.88;1.80;;;;;;;;;;5068538;28;20422;-84
2022/03/20 04:03:02;;;;;;;4.60;1.98;;;;;;;;;;5070455;28;20024;-84
2022/03/20 04:05:28;;;;;;;2.70;1.85;;;;;;;;;;5068534;28;20076;-84
2022/03/20 04:07:54;;;;;;;3.80;1.90;;;;;;;;;;5065817;28;20081;-84
2022/03/20 04:10:21;;;;;;;2.85;2.05;;;;;;;;;;5058090;28;20033;-85
2022/03/20 04:12:47;;;;;;;3.20;1.85;;;;;;;;;;5056438;28;20067;-86
2022/03/20 04:15:14;;;;;;;3.00;1.83;;;;;;;;;;5055607;28;20469;-83
2022/03/20 04:17:40;;;;;;;2.95;1.95;;;;;;;;;;5061799;28;20028;-84
2022/03/20 04:20:07;;;;;;;2.85;1.35;;;;;;;;;;5063927;28;20027;-84
2022/03/20 04:22:39;;;;;;;2.08;1.35;;;;;;;;;;5058600;28;20417;-83
2022/03/20 04:25:05;;;;;;;2.70;1.58;;;;;;;;;;5063573;28;20021;-83
2022/03/20 04:27:31;;;;;;;4.07;1.83;;;;;;;;;;5067736;28;20032;-86
2022/03/20 04:29:57;;;;;;;4.25;1.70;;;;;;;;;;5054381;28;20029;-86
2022/03/20 04:32:23;;;;;;;3.50;1.60;;;;;;;;;;5056649;28;20028;-87
2022/03/20 04:34:49;;;;;;;2.63;1.90;;;;;;;;;;5059563;28;20103;-84
2022/03/20 04:37:16;;;;;;;5.45;2.85;;;;;;;;;;5058510;28;20539;-82
2022/03/20 04:39:43;;;;;;;3.05;1.95;;;;;;;;;;5054846;28;20460;-85
2022/03/20 04:42:09;;;;;;;4.38;2.20;;;;;;;;;;5061830;28;20527;-83
2022/03/20 04:44:39;;;;;;;3.88;1.48;;;;;;;;;;5055315;28;20059;-84
2022/03/20 04:58:28;;;;;;;5.28;2.53;;;;;;;;;;5066708;28;20473;-84
2022/03/20 05:00:47;;;;;;;3.40;1.80;;;;;;;;;;5051901;28;20094;-84
2022/03/20 05:03:13;;;;;;;5.03;1.92;;;;;;;;;;5066633;28;20025;-83
2022/03/20 05:05:38;;;;;;;3.97;1.75;;;;;;;;;;5053626;28;20109;-83
2022/03/20 05:08:06;;;;;;;2.88;1.88;;;;;;;;;;5056278;28;20051;-83
2022/03/20 05:13:22;;;;;;;3.70;2.05;;;;;;;;;;5056392;28;20047;-84
2022/03/20 05:15:48;;;;;;;1.95;1.63;;;;;;;;;;5052761;28;20028;-84
2022/03/20 05:18:14;;;;;;;5.95;2.33;;;;;;;;;;5061871;28;20051;-84
2022/03/20 05:20:41;;;;;;;2.63;1.98;;;;;;;;;;5056685;28;20063;-83
2022/03/20 05:23:06;;;;;;;5.40;2.30;;;;;;;;;;5052778;28;20029;-83
2022/03/20 05:25:31;;;;;;;2.55;1.65;;;;;;;;;;5057602;28;20369;-83
2022/03/20 05:27:58;;;;;;;2.72;2.00;;;;;;;;;;5062990;28;20032;-85
2022/03/20 05:30:24;;;;;;;3.80;1.90;;;;;;;;;;5061761;28;20484;-85
2022/03/20 05:32:50;;;;;;;7.85;2.90;;;;;;;;;;5063301;28;20484;-82
2022/03/20 05:35:16;;;;;;;4.90;2.30;;;;;;;;;;5064022;28;20024;-84
2022/03/20 05:37:43;;;;;;;4.50;2.63;;;;;;;;;;5057748;28;20021;-84
2022/03/20 05:40:11;;;;;;;3.13;2.03;;;;;;;;;;5065805;28;20028;-83
2022/03/20 05:42:37;;;;;;;4.18;1.90;;;;;;;;;;5069053;28;20052;-83
2022/03/20 05:45:06;;;;;;;2.60;1.75;;;;;;;;;;5050612;28;20071;-84
2022/03/20 05:47:32;;;;;;;2.40;1.75;;;;;;;;;;5065528;28;20369;-84
2022/03/20 05:50:01;;;;;;;5.05;2.88;;;;;;;;;;5061537;28;20473;-84
2022/03/20 05:52:30;;;;;;;3.83;1.95;;;;;;;;;;5055457;28;20079;-84
2022/03/20 05:54:57;;;;;;;3.92;2.50;;;;;;;;;;5055313;28;20037;-84
2022/03/20 06:00:16;;;;;;;4.90;2.65;;;;;;;;;;5069554;28;20039;-84
2022/03/20 06:02:43;;;;;;;2.88;2.00;;;;;;;;;;5060712;28;20397;-84
2022/03/20 06:05:09;;;;;;;5.13;2.25;;;;;;;;;;5060202;28;20060;-85
2022/03/20 06:07:40;;;;;;;4.72;2.10;;;;;;;;;;5057285;28;20056;-83
2022/03/20 06:10:09;;;;;;;2.83;2.15;;;;;;;;;;5049243;28;20029;-84
2022/03/20 06:12:34;;;;;;;5.32;2.42;;;;;;;;;;5051144;28;20386;-83
2022/03/20 06:15:00;;;;;;;4.18;2.55;;;;;;;;;;5051524;28;20112;-84
2022/03/20 06:17:25;;;;;;;4.47;2.45;;;;;;;;;;5048954;28;20465;-83
2022/03/20 06:19:52;;;;;;;4.13;2.45;;;;;;;;;;5049775;28;20021;-82
2022/03/20 06:22:17;;;;;;;7.05;3.15;;;;;;;;;;5049371;28;20025;-83
2022/03/20 06:24:43;;;;;;;6.13;3.17;;;;;;;;;;5058688;28;20388;-82
2022/03/20 06:27:09;;;;;;;3.58;2.78;;;;;;;;;;5052638;28;20032;-82
2022/03/20 06:29:34;;;;;;;6.38;3.03;;;;;;;;;;5050291;28;20032;-82
2022/03/20 06:32:00;;;;;;;6.15;3.83;;;;;;;;;;5052932;28;20040;-82
2022/03/20 06:34:26;;;;;;;5.60;2.65;;;;;;;;;;5051305;28;20017;-82
2022/03/20 06:36:55;;;;;;;5.50;2.67;;;;;;;;;;5047123;28;20032;-82
2022/03/20 06:39:21;;;;;;;3.55;2.38;;;;;;;;;;5048498;28;20491;-82
2022/03/20 06:41:47;;;;;;;4.75;2.88;;;;;;;;;;5048530;28;20033;-83
2022/03/20 06:44:15;;;;;;;4.68;3.22;;;;;;;;;;5052318;28;20025;-83
2022/03/20 06:46:41;;;;;;;5.00;2.80;;;;;;;;;;5054595;28;20101;-83
2022/03/20 06:49:09;;;;;;;4.57;2.88;;;;;;;;;;5053925;28;20537;-85
2022/03/20 06:51:34;;;;;;;4.38;2.67;;;;;;;;;;5052873;28;20067;-84
2022/03/20 06:54:00;;;;;;;4.05;2.70;;;;;;;;;;5052022;28;20056;-84
2022/03/20 06:56:28;;;;;;;7.40;2.78;;;;;;;;;;5051126;28;20021;-84
2022/03/20 06:58:54;;;;;;;5.60;3.33;;;;;;;;;;5052213;28;20033;-84
2022/03/20 07:01:19;;;;;;;3.60;2.83;;;;;;;;;;5051201;28;20036;-86
2022/03/20 07:03:45;;;;;;;5.10;2.45;;;;;;;;;;5052209;28;20024;-84
2022/03/20 07:06:12;;;;;;;5.00;2.40;;;;;;;;;;5056186;28;20060;-86
2022/03/20 07:08:37;;;;;;;4.75;3.17;;;;;;;;;;5054108;28;20471;-86
2022/03/20 07:11:03;;;;;;;5.57;3.42;;;;;;;;;;5052720;28;20031;-85
2022/03/20 07:16:16;;;;;;;4.20;3.08;;;;;;;;;;5053891;28;20035;-84
2022/03/20 07:18:45;;;;;;;4.60;2.88;;;;;;;;;;5051469;28;20029;-85
2022/03/20 07:21:15;;;;;;;4.65;3.40;;;;;;;;;;5056149;28;20037;-86
2022/03/20 07:23:40;;;;;;;8.75;3.10;;;;;;;;;;5050116;28;20025;-83
2022/03/20 07:31:34;;;;;;;5.40;2.92;;;;;;;;;;5050200;28;20087;-86
2022/03/20 07:34:00;;;;;;;4.03;2.78;;;;;;;;;;5053527;28;20029;-85
2022/03/20 07:36:26;;;;;;;4.78;3.33;;;;;;;;;;5054350;28;20025;-83
2022/03/20 07:38:51;;;;;;;4.38;2.72;;;;;;;;;;5055152;28;20366;-86
2022/03/20 07:41:17;;;;;;;4.50;3.15;;;;;;;;;;5053217;28;20025;-85
2022/03/20 07:43:43;;;;;;;5.88;3.20;;;;;;;;;;5051871;28;20377;-84
2022/03/20 07:46:08;;;;;;;3.65;2.58;;;;;;;;;;5064780;28;20028;-86
2022/03/20 07:48:34;;;;;;;5.60;3.28;;;;;;;;;;5065713;28;20105;-83
2022/03/20 07:51:00;;;;;;;7.60;4.65;;;;;;;;;;5052868;28;20437;-87
2022/03/20 07:53:26;;;;;;;5.63;3.70;;;;;;;;;;5050089;28;20123;-83
2022/03/20 07:55:52;;;;;;;7.35;3.90;;;;;;;;;;5052586;28;20027;-83
2022/03/20 07:58:19;;;;;;;12.02;4.00;;;;;;;;;;5068108;28;20029;-83
2022/03/20 08:00:45;;;;;;;9.25;5.07;;;;;;;;;;5067872;28;20038;-86
2022/03/20 08:03:11;;;;;;;5.90;3.15;;;;;;;;;;5055672;28;20028;-86
2022/03/20 08:05:37;;;;;;;7.20;3.42;;;;;;;;;;5056341;28;20029;-87
2022/03/20 08:08:03;;;;;;;6.00;3.45;;;;;;;;;;5053757;28;20083;-84
2022/03/20 08:10:29;;;;;;;9.38;4.70;;;;;;;;;;5049270;28;20025;-82
2022/03/20 08:12:55;;;;;;;5.80;3.40;;;;;;;;;;5073186;28;20049;-84
2022/03/20 08:15:20;;;;;;;5.47;3.42;;;;;;;;;;5052846;28;20078;-84
2022/03/20 08:17:48;;;;;;;7.70;4.25;;;;;;;;;;5050171;28;20035;-83
2022/03/20 08:20:14;;;;;;;6.35;3.80;;;;;;;;;;5052172;28;20059;-86
2022/03/20 08:22:40;;;;;;;6.40;3.70;;;;;;;;;;5052313;28;20456;-82
2022/03/20 08:25:07;;;;;;;7.05;3.58;;;;;;;;;;5051370;28;20476;-85
2022/03/20 08:27:44;;;;;;;6.80;4.10;;;;;;;;;;5049768;28;20025;-83
2022/03/20 08:30:11;;;;;;;5.25;3.50;;;;;;;;;;5051845;28;20481;-83
2022/03/20 08:32:37;;;;;;;3.85;2.97;;;;;;;;;;5049571;28;20025;-84
2022/03/20 08:35:04;;;;;;;6.15;3.90;;;;;;;;;;5056857;28;20059;-86
2022/03/20 08:37:31;;;;;;;8.38;4.38;;;;;;;;;;5068568;28;20540;-84
2022/03/20 08:39:58;;;;;;;5.22;3.30;;;;;;;;;;5051626;28;20029;-84
2022/03/20 08:42:23;;;;;;;5.03;3.08;;;;;;;;;;5062373;28;20020;-87
2022/03/20 08:44:51;;;;;;;5.97;3.00;;;;;;;;;;5061831;28;20089;-84
2022/03/20 08:47:16;;;;;;;6.80;3.40;;;;;;;;;;5057497;28;20063;-85
2022/03/20 08:49:42;;;;;;;4.78;3.25;;;;;;;;;;5066181;28;20079;-85
2022/03/20 08:52:08;;;;;;;6.63;3.38;;;;;;;;;;5051286;28;20036;-83
2022/03/20 08:54:33;;;;;;;5.50;2.75;;;;;;;;;;5068042;28;20029;-81
2022/03/20 08:57:01;;;;;;;4.57;2.60;;;;;;;;;;5063280;28;20357;-83
2022/03/20 08:59:27;;;;;;;5.78;2.70;;;;;;;;;;5053255;28;20428;-83
2022/03/20 09:01:52;;;;;;;7.07;3.78;;;;;;;;;;5054523;28;20057;-85
2022/03/20 09:04:18;;;;;;;6.38;3.63;;;;;;;;;;5050342;28;20029;-82
2022/03/20 09:06:47;;;;;;;46.28;18.90;;;;;;;;;;5048267;28;20063;-85
2022/03/20 09:09:14;;;;;;;7.60;4.45;;;;;;;;;;5048147;28;20025;-86
2022/03/20 09:11:41;;;;;;;5.40;2.95;;;;;;;;;;5050475;28;20491;-86
2022/03/20 09:14:08;;;;;;;4.85;2.75;;;;;;;;;;5046753;28;20108;-86
2022/03/20 09:19:18;;;;;;;40.00;20.00;;;;;;;;;;5052532;28;20090;-85
2022/03/20 09:21:44;;;;;;;13.82;8.57;;;;;;;;;;5048276;28;20088;-83
2022/03/20 09:24:09;;;;;;;5.80;3.70;;;;;;;;;;5048690;28;20103;-81
2022/03/20 09:26:35;;;;;;;8.05;3.67;;;;;;;;;;5045919;28;20029;-83
2022/03/20 09:29:01;;;;;;;5.97;3.78;;;;;;;;;;5047094;28;20085;-84
2022/03/20 09:31:27;;;;;;;5.93;3.55;;;;;;;;;;5050460;28;20477;-83
2022/03/20 09:33:53;;;;;;;5.68;3.05;;;;;;;;;;5051585;28;20453;-85
2022/03/20 09:36:19;;;;;;;4.88;3.53;;;;;;;;;;5046371;28;20029;-83
2022/03/20 09:38:45;;;;;;;6.43;3.53;;;;;;;;;;5046182;28;20064;-85
2022/03/20 09:41:11;;;;;;;5.80;3.50;;;;;;;;;;5049880;28;20060;-82
2022/03/20 09:43:39;;;;;;;4.50;3.33;;;;;;;;;;5053632;28;20020;-83
2022/03/20 09:46:05;;;;;;;4.28;3.03;;;;;;;;;;5052819;28;20025;-83
2022/03/20 09:48:31;;;;;;;7.18;3.25;;;;;;;;;;5050031;28;20032;-85
2022/03/20 09:50:58;;;;;;;5.30;2.33;;;;;;;;;;5048973;28;20029;-82
2022/03/20 09:53:24;;;;;;;5.53;2.58;;;;;;;;;;5049081;28;20128;-83
2022/03/20 09:55:51;;;;;;;3.45;2.50;;;;;;;;;;5051820;28;20029;-84
2022/03/20 09:58:16;;;;;;;4.47;2.60;;;;;;;;;;5045501;28;20384;-86
2022/03/20 10:00:42;;;;;;;3.38;2.88;;;;;;;;;;5049363;28;20025;-83
2022/03/20 10:03:18;;;;;;;5.20;2.92;;;;;;;;;;5049872;28;20021;-84
2022/03/20 10:05:44;;;;;;;4.28;2.47;;;;;;;;;;5050190;28;20380;-83
2022/03/20 10:08:16;;;;;;;14.70;8.63;;;;;;;;;;5045551;28;20025;-84
2022/03/20 10:10:43;;;;;;;14.35;8.60;;;;;;;;;;5048212;28;20025;-86
2022/03/20 10:13:13;;;;;;;22.92;11.80;;;;;;;;;;5050069;28;20503;-86
2022/03/20 10:15:41;;;;;;;5.97;2.83;;;;;;;;;;5049328;28;20025;-85
2022/03/20 10:18:09;;;;;;;5.60;2.58;;;;;;;;;;5048788;28;20033;-84
2022/03/20 10:20:42;;;;;;;6.28;3.28;;;;;;;;;;5050366;28;20048;-85
2022/03/20 10:23:46;;;;;;;4.13;3.10;;;;;;;;;;5055568;28;20431;-84
2022/03/20 10:26:18;;;;;;;3.33;2.35;;;;;;;;;;5050868;28;20044;-83
2022/03/20 10:28:48;;;;;;;8.35;4.65;;;;;;;;;;5047224;28;20385;-87
2022/03/20 10:31:18;;;;;;;7.03;3.88;;;;;;;;;;5050109;28;20033;-82
2022/03/20 10:34:01;;;;;;;3.60;2.33;;;;;;;;;;5049199;28;20485;-86
2022/03/20 10:36:27;;;;;;;7.07;3.72;;;;;;;;;;5047494;28;20461;-84
2022/03/20 10:38:55;;;;;;;4.70;2.67;;;;;;;;;;5049899;28;20094;-86
2022/03/20 10:41:27;;;;;;;7.28;3.05;;;;;;;;;;5045412;28;20037;-84
2022/03/20 10:43:59;;;;;;;4.30;2.63;;;;;;;;;;5072299;28;20024;-85
2022/03/20 10:46:30;;;;;;;6.47;2.58;;;;;;;;;;5050718;28;20064;-85
2022/03/20 10:48:58;;;;;;;4.40;2.58;;;;;;;;;;5044475;28;20040;-85
2022/03/20 10:51:41;;;;;;;5.00;3.10;;;;;;;;;;5049851;28;20029;-85
2022/03/20 10:54:11;;;;;;;;;;;;;;;;;;5052552;28;20373;-85
2022/03/20 10:56:51;;;;;;;5.20;3.17;;;;;;;;;;5056106;28;20417;-85
2022/03/20 11:02:51;;;;;;;4.95;2.58;;;;;;;;;;5051655;28;20025;-84
2022/03/20 11:05:17;;;;;;;4.72;2.67;;;;;;;;;;5052603;28;20411;-86
2022/03/20 11:07:43;;;;;;;6.60;2.92;;;;;;;;;;5046795;28;20033;-87
2022/03/20 11:10:11;;;;;;;6.70;3.20;;;;;;;;;;5053230;28;20052;-86
2022/03/20 11:12:40;;;;;;;6.68;2.60;;;;;;;;;;5051261;28;20481;-85
2022/03/20 11:15:07;;;;;;;4.07;2.97;;;;;;;;;;5052675;28;20449;-84
2022/03/20 11:17:44;;;;;;;4.47;2.65;;;;;;;;;;5049950;28;20777;-85
2022/03/20 11:20:15;;;;;;;7.60;4.63;;;;;;;;;;5044378;28;20025;-87
2022/03/20 11:22:53;;;;;;;4.45;3.05;;;;;;;;;;5042993;28;20386;-84
2022/03/20 11:25:24;;;;;;;4.22;2.63;;;;;;;;;;5044632;28;20025;-86
2022/03/20 11:28:03;;;;;;;4.47;3.33;;;;;;;;;;5037656;28;20043;-86
2022/03/20 11:30:31;;;;;;;3.30;2.50;;;;;;;;;;5048282;28;20083;-83
2022/03/20 11:33:00;;;;;;;4.22;3.00;;;;;;;;;;5052589;28;20110;-83
2022/03/20 11:35:30;;;;;;;6.85;3.85;;;;;;;;;;5050446;28;20378;-83
2022/03/20 11:38:10;;;;;;;4.35;2.67;;;;;;;;;;5062670;28;20413;-84
2022/03/20 11:40:40;;;;;;;6.18;2.67;;;;;;;;;;5049625;28;20056;-85
2022/03/20 11:43:16;;;;;;;;;;;;;;;;;;5050913;28;20527;-86
2022/03/20 11:46:22;;;;;;;4.90;3.17;;;;;;;;;;5044657;28;20361;-84
2022/03/20 11:49:20;;;;;;;3.78;3.03;;;;;;;;;;5046276;28;20044;-85
2022/03/20 11:52:07;;;;;;;5.25;3.15;;;;;;;;;;5057598;28;20036;-88
2022/03/20 11:54:41;;;;;;;6.85;3.63;;;;;;;;;;5048542;28;20021;-86
2022/03/20 11:57:26;;;;;;;8.63;3.15;;;;;;;;;;5041256;28;20120;-84
2022/03/20 11:59:56;;;;;;;5.60;3.45;;;;;;;;;;5052758;28;20447;-84
2022/03/20 12:02:51;;;;;;;8.30;4.60;;;;;;;;;;5051086;28;20032;-83
2022/03/20 12:06:07;;;;;;;7.00;3.70;;;;;;;;;;5014756;28;20044;-85
2022/03/20 12:08:52;;;;;;;7.80;5.78;;;;;;;;;;5030621;28;20036;-84
2022/03/20 12:11:18;;;;;;;6.70;3.67;;;;;;;;;;5052354;28;20075;-85
2022/03/20 12:14:11;;;;;;;6.88;3.85;;;;;;;;;;5052813;28;20021;-85
2022/03/20 12:16:42;;;;;;;4.57;3.38;;;;;;;;;;5051856;28;20481;-85
2022/03/20 12:19:12;;;;;;;7.90;4.47;;;;;;;;;;5050236;28;20028;-86
2022/03/20 12:21:53;;;;;;;;;;;;;;;;;;5052471;28;20029;-87
2022/03/20 12:24:39;;;;;;;3.63;2.38;;;;;;;;;;5048646;28;19913;-84
2022/03/20 12:27:23;;;;;;;5.53;3.25;;;;;;;;;;5053427;28;20028;-84
2022/03/20 12:30:08;;;;;;;7.22;4.82;;;;;;;;;;5055176;28;20039;-86
2022/03/20 12:32:46;;;;;;;5.43;3.53;;;;;;;;;;5038527;28;20555;-88
2022/03/20 12:35:12;;;;;;;4.93;3.35;;;;;;;;;;5051338;28;20035;-85
2022/03/20 12:37:39;;;;;;;6.00;3.88;;;;;;;;;;5051013;28;20031;-87
2022/03/20 12:40:07;;;;;;;8.45;3.58;;;;;;;;;;5059072;28;20031;-86
2022/03/20 12:42:34;;;;;;;5.82;3.42;;;;;;;;;;5058863;28;20016;-86
2022/03/20 12:45:03;;;;;;;6.80;3.92;;;;;;;;;;5057224;28;20461;-86
2022/03/20 12:47:29;;;;;;;4.72;3.42;;;;;;;;;;5051215;28;20500;-88
2022/03/20 12:50:10;;;;;;;5.80;3.95;;;;;;;;;;5048838;28;20060;-88
2022/03/20 12:52:38;;;;;;;6.60;3.60;;;;;;;;;;5052788;28;20029;-87
2022/03/20 12:55:07;;;;;;;5.50;3.80;;;;;;;;;;5057747;28;20100;-87
2022/03/20 12:57:44;;;;;;;6.35;3.83;;;;;;;;;;5051900;28;20044;-86
2022/03/20 13:00:20;;;;;;;4.55;3.30;;;;;;;;;;5050671;28;20078;-87
2022/03/20 13:03:00;;;;;;;6.90;3.80;;;;;;;;;;5050576;28;20033;-88
2022/03/20 13:05:27;;;;;;;6.13;4.32;;;;;;;;;;5049472;28;20035;-87
2022/03/20 13:07:54;;;;;;;5.22;3.70;;;;;;;;;;5053776;28;20043;-87
2022/03/20 13:10:23;;;;;;;5.80;4.57;;;;;;;;;;5042205;28;20025;-87
2022/03/20 13:13:02;;;;;;;5.53;4.25;;;;;;;;;;5058257;28;20072;-89
2022/03/20 13:16:01;;;;;;;6.93;4.45;;;;;;;;;;5058820;28;20033;-88
2022/03/20 13:18:31;;;;;;;5.13;3.70;;;;;;;;;;5053706;28;20095;-89
2022/03/20 13:21:06;;;;;;;6.15;3.78;;;;;;;;;;5065614;28;20523;-90
2022/03/20 13:23:32;;;;;;;6.57;4.28;;;;;;;;;;5060954;28;20044;-87
2022/03/20 13:25:58;;;;;;;8.43;4.93;;;;;;;;;;5051248;28;20021;-90
2022/03/20 13:28:29;;;;;;;6.55;4.30;;;;;;;;;;5060621;28;20115;-88
2022/03/20 13:30:57;;;;;;;9.45;4.75;;;;;;;;;;5061747;28;20025;-90
2022/03/20 13:33:57;;;;;;;8.02;5.30;;;;;;;;;;5067950;28;20025;-88
2022/03/20 13:36:24;;;;;;;;;;;;;;;;;;5053077;28;20504;-87
2022/03/20 13:38:52;;;;;;;9.82;4.82;;;;;;;;;;5051317;28;19908;-88
2022/03/20 13:41:21;;;;;;;6.38;4.20;;;;;;;;;;5055105;28;20025;-89
2022/03/20 13:43:47;;;;;;;5.35;4.00;;;;;;;;;;5064715;28;20550;-89
2022/03/20 13:46:20;;;;;;;5.03;3.83;;;;;;;;;;5054132;28;20025;-91
2022/03/20 13:48:48;;;;;;;5.97;3.83;;;;;;;;;;5049259;28;20480;-88
2022/03/20 13:51:14;;;;;;;6.85;4.65;;;;;;;;;;5050018;28;20037;-89
2022/03/20 13:53:41;;;;;;;7.07;6.35;;;;;;;;;;5048869;28;20071;-89
2022/03/20 13:56:25;;;;;;;8.57;4.50;;;;;;;;;;5052866;28;20035;-87
2022/03/20 13:59:10;;;;;;;7.80;4.97;;;;;;;;;;5044605;28;20500;-88
2022/03/20 14:01:54;;;;;;;6.75;4.60;;;;;;;;;;5062205;28;20477;-88
2022/03/20 14:04:24;;;;;;;6.60;4.28;;;;;;;;;;5046512;28;20052;-88
2022/03/20 14:07:01;;;;;;;8.88;5.45;;;;;;;;;;5042863;28;20087;-88
2022/03/20 14:09:35;;;;;;;7.78;4.90;;;;;;;;;;5041817;28;20120;-88
2022/03/20 14:12:21;;;;;;;6.88;5.05;;;;;;;;;;5058950;28;20140;-88
2022/03/20 14:14:47;;;;;;;6.72;4.55;;;;;;;;;;5049395;28;20041;-88
2022/03/20 14:17:13;;;;;;;5.90;4.22;;;;;;;;;;5059581;28;20035;-89
2022/03/20 14:19:48;;;;;;;9.38;5.60;;;;;;;;;;5067342;28;20046;-89
2022/03/20 14:22:14;;;;;;;6.82;5.00;;;;;;;;;;5069665;28;20024;-90
2022/03/20 14:24:54;;;;;;;10.77;6.60;;;;;;;;;;5064159;28;20120;-88
2022/03/20 14:27:30;;;;;;;8.50;5.60;;;;;;;;;;5062631;28;20052;-88
2022/03/20 14:40:57;;;;;;;5.70;4.50;;;;;;;;;;5055517;28;20456;-89
2022/03/20 14:43:26;;;;;;;21.08;11.05;;;;;;;;;;5070913;28;20112;-87
2022/03/20 14:45:55;;;;;;;41.17;22.05;;;;;;;;;;5057257;28;20034;-90
2022/03/20 14:48:22;;;;;;;24.83;13.40;;;;;;;;;;5066404;28;20089;-90
2022/03/20 14:50:48;;;;;;;16.98;10.90;;;;;;;;;;5069015;28;20039;-90
2022/03/20 14:53:21;;;;;;;11.13;7.10;;;;;;;;;;5067652;28;20020;-87
2022/03/20 14:55:47;;;;;;;9.43;5.38;;;;;;;;;;5072316;28;20437;-88
2022/03/20 14:58:12;;;;;;;7.85;4.63;;;;;;;;;;5066555;28;20103;-87
2022/03/20 15:00:38;;;;;;;9.02;4.97;;;;;;;;;;5065416;28;20387;-88
2022/03/20 15:03:03;;;;;;;6.88;4.25;;;;;;;;;;5060518;28;20162;-86
2022/03/20 15:05:29;;;;;;;5.15;3.95;;;;;;;;;;5065120;28;20024;-87
2022/03/20 15:13:22;;;;;;;12.68;7.57;;;;;;;;;;5053180;28;20059;-88
2022/03/20 15:15:49;;;;;;;60.17;37.97;;;;;;;;;;5056486;28;20052;-86
2022/03/20 15:18:14;;;;;;;45.60;24.70;;;;;;;;;;5069645;28;20399;-88
2022/03/20 15:20:40;;;;;;;17.73;10.57;;;;;;;;;;5063289;28;20033;-89
2022/03/20 15:23:06;;;;;;;11.65;6.15;;;;;;;;;;5070905;28;20025;-86
2022/03/20 15:25:32;;;;;;;15.80;8.98;;;;;;;;;;5054703;28;20443;-87
2022/03/20 15:27:57;;;;;;;17.33;8.98;;;;;;;;;;5055958;28;20028;-86
2022/03/20 15:30:23;;;;;;;12.75;6.53;;;;;;;;;;5057919;28;20029;-84
2022/03/20 15:32:49;;;;;;;8.38;4.63;;;;;;;;;;5051460;28;20025;-87
2022/03/20 15:35:14;;;;;;;16.38;7.40;;;;;;;;;;5051871;28;20461;-86
2022/03/20 15:37:40;;;;;;;12.10;7.82;;;;;;;;;;5052418;28;20028;-85
2022/03/20 15:40:06;;;;;;;7.80;5.30;;;;;;;;;;5052834;28;20036;-86
2022/03/20 15:42:33;;;;;;;11.02;7.85;;;;;;;;;;5051120;28;20821;-87